Flight Track Log - Related Links

Times and Time Zones

All times are in EDT time to prevent confusion due to time zone crossing. See the AAL1459 flight status page for this flight to view local times or setup timezone preferences in your user account.

Time Position Orientation Groundspeed Altitude Reporting Facility
EDT Latitude Longitude Course Direction KTS MPH feet Rate Location/Type
Mon 02:23:46 PM 42.3667 -70.9667 300° West 151 174 1,200  Level KA90
Mon 02:24:40 PM 42.3667 -70.9167 90° East 198 228 2,500 1,737 Climbing KA90
Mon 02:25:00 PM 42.4594 -70.8271 26° Northeast  Level FlightAware Approximate
Mon 02:25:40 PM 42.3833 -70.8333 75° East 232 267 4,500  Level KA90
Mon 02:26:00 PM 42.5385 -70.8026 340° North  Level FlightAware Approximate
Mon 02:27:00 PM 42.6099 -70.8922 308° West  Level FlightAware Approximate
Mon 02:27:03 PM 42.4653 -70.7683 30° Northeast 292 336 7,500  Level Boston Center
Mon 02:28:00 PM 42.6640 -71.0068 300° West  Level FlightAware Approximate
Mon 02:28:03 PM 42.5350 -70.8397 323° Northwest 250 288 10,500  Level Boston Center
Mon 02:29:03 PM 42.5906 -70.9369 308° West 282 325 11,900 2,400 Climbing Boston Center
Mon 02:30:03 PM 42.6589 -71.0567 308° West 351 404 15,300 3,050 Climbing Boston Center
Mon 02:31:03 PM 42.7142 -71.1572 307° West 373 429 18,000 2,150 Climbing Boston Center
Mon 02:32:03 PM 42.7531 -71.2922 291° West 373 429 19,600 2,050 Climbing Boston Center
Mon 02:33:03 PM 42.7836 -71.4303 287° West 378 435 22,100 2,350 Climbing Boston Center
Mon 02:34:03 PM 42.8056 -71.5714 282° West 383 441 24,300 2,050 Climbing Boston Center
Mon 02:35:03 PM 42.8358 -71.7181 286° West 393 452 26,200 1,850 Climbing Boston Center
Mon 02:36:03 PM 42.8658 -71.8650 286° West 399 459 28,000 1,900 Climbing Boston Center
Mon 02:37:03 PM 42.8956 -72.0150 285° West 404 465 30,000 2,250 Climbing Boston Center
Mon 02:38:03 PM 42.9231 -72.1567 285° West 404 465 32,500 2,150 Climbing Boston Center
Mon 02:39:03 PM 42.9567 -72.2897 289° West 385 443 34,300 1,500 Climbing Boston Center
Mon 02:40:03 PM 42.9797 -72.4231 283° West 373 429 35,500 800 Climbing Boston Center
Mon 02:41:03 PM 43.0006 -72.5308 285° West 368 423 35,900 250 Climbing Boston Center
Mon 02:42:03 PM 43.0275 -72.7069 282° West 368 423 36,000 50 Climbing Boston Center
Mon 02:43:03 PM 43.0542 -72.8436 285° West 373 429 36,000  Level Boston Center
Mon 02:44:03 PM 43.0806 -72.9858 284° West 373 429 36,000  Level Boston Center
Mon 02:45:03 PM 43.1069 -73.1169 285° West 378 435 36,000  Level Boston Center
Mon 02:46:03 PM 43.1353 -73.2653 285° West 388 447 36,000  Level Boston Center
Mon 02:47:03 PM 43.1611 -73.4219 283° West 393 452 36,000  Level Boston Center
Mon 02:48:03 PM 43.1869 -73.5647 284° West 393 452 36,000  Level Boston Center
Mon 02:49:03 PM 43.2019 -73.7133 278° West 393 452 36,000  Level Boston Center
Mon 02:50:03 PM 43.2128 -73.8503 276° West 393 452 36,000 -50 Level Boston Center
Mon 02:51:03 PM 43.2214 -73.9986 275° West 393 452 35,900 -50 Descending Boston Center
Mon 02:52:03 PM 43.2294 -74.1497 274° West 393 452 35,900  Level Boston Center
Mon 02:53:03 PM 43.2375 -74.3011 274° West 398 458 35,900 50 Level Boston Center
Mon 02:54:03 PM 43.2456 -74.4525 274° West 405 466 36,000  Climbing Boston Center
Mon 02:55:03 PM 43.2531 -74.6039 274° West 405 466 35,900  Descending Boston Center
Mon 02:56:03 PM 43.2628 -74.7553 275° West 405 466 36,000  Climbing Boston Center
Mon 02:57:03 PM 43.2700 -74.9067 274° West 405 466 35,900 -50 Descending Boston Center
Mon 02:58:03 PM 43.2750 -75.0525 273° West 405 466 35,900 50 Level Boston Center
Mon 02:59:03 PM 43.2858 -75.2125 275° West 405 466 36,000 50 Climbing Boston Center
Mon 03:00:03 PM 43.2925 -75.3669 273° West 410 472 36,000  Level Boston Center
Mon 03:01:03 PM 43.2986 -75.5242 273° West 410 472 36,000 -34 Level Boston Center
Mon 03:03:01 PM 43.3111 -75.8350 273° West 404 465 35,900  Descending Cleveland Center
Mon 03:04:01 PM 43.3172 -75.9858 273° West 404 465 36,000 50 Climbing Cleveland Center
Mon 03:05:01 PM 43.3256 -76.1422 274° West 404 465 36,000  Level Cleveland Center
Mon 03:06:01 PM 43.3231 -76.2967 269° West 404 465 36,000  Level Cleveland Center
Mon 03:07:01 PM 43.3161 -76.4511 267° West 404 465 36,000 -50 Level Cleveland Center
Mon 03:08:01 PM 43.3111 -76.6058 268° West 409 471 35,900  Descending Cleveland Center
Mon 03:09:01 PM 43.3058 -76.7600 267° West 409 471 36,000 50 Climbing Cleveland Center
Mon 03:10:01 PM 43.2983 -76.9147 266° West 409 471 36,000  Level Cleveland Center
Mon 03:11:01 PM 43.2900 -77.0522 265° West 409 471 36,000  Level Cleveland Center
Mon 03:12:01 PM 43.2842 -77.2064 267° West 409 471 36,000  Level Cleveland Center
Mon 03:13:01 PM 43.2783 -77.3636 267° West 409 471 36,000  Level Cleveland Center
Mon 03:14:01 PM 43.2700 -77.5181 266° West 409 471 36,000  Level Cleveland Center
Mon 03:15:01 PM 43.2614 -77.6725 266° West 409 471 36,000  Level Cleveland Center
Mon 03:16:01 PM 43.2550 -77.8297 267° West 409 471 36,000  Level Cleveland Center
Mon 03:17:01 PM 43.2458 -77.9839 265° West 409 471 36,000  Level Cleveland Center
Mon 03:18:01 PM 43.2389 -78.1411 267° West 409 471 36,000  Level Cleveland Center
Mon 03:19:01 PM 43.2317 -78.2981 266° West 409 471 36,000  Level Cleveland Center
Mon 03:20:01 PM 43.2222 -78.4522 265° West 409 471 36,000  Level Cleveland Center
Mon 03:21:01 PM 43.2144 -78.6064 266° West 409 471 36,000  Level Cleveland Center
Mon 03:22:01 PM 43.2044 -78.7547 265° West 403 464 36,000  Level Cleveland Center
Mon 03:23:01 PM 43.1961 -78.9058 266° West 403 464 36,000  Level Cleveland Center
Mon 03:24:13 PM 43.1833 -79.0667 264° West 390 449 36,000  Level Toronto Center
Mon 03:25:13 PM 43.1667 -79.2167 261° West 390 449 36,000  Level Toronto Center
Mon 03:26:13 PM 43.1500 -79.3833 262° West 400 460 36,000  Level Toronto Center
Mon 03:27:13 PM 43.1500 -79.5500 270° West 400 460 36,000  Level Toronto Center
Mon 03:28:13 PM 43.1333 -79.6833 260° West 400 460 36,000  Level Toronto Center
Mon 03:29:13 PM 43.1167 -79.8333 261° West 400 460 36,000  Level Toronto Center
Mon 03:30:13 PM 43.1167 -80.0000 270° West 410 472 36,000  Level Toronto Center
Mon 03:31:13 PM 43.1000 -80.1333 260° West 410 472 36,000  Level Toronto Center
Mon 03:32:13 PM 43.1000 -80.3000 270° West 410 472 36,000  Level Toronto Center
Mon 03:33:13 PM 43.0833 -80.4500 261° West 410 472 36,000  Level Toronto Center
Mon 03:34:13 PM 43.0667 -80.6167 262° West 410 472 36,000  Level Toronto Center
Mon 03:35:13 PM 43.0667 -80.7667 270° West 410 472 36,000  Level Toronto Center
Mon 03:36:13 PM 43.0333 -80.9167 253° West 410 472 36,000  Level Toronto Center
Mon 03:37:13 PM 43.0167 -81.0667 261° West 410 472 36,000  Level Toronto Center
Mon 03:38:13 PM 43.0167 -81.2333 270° West 400 460 36,000  Level Toronto Center
Mon 03:39:13 PM 43.0167 -81.3833 270° West 400 460 36,000  Level Toronto Center
Mon 03:40:13 PM 43.0167 -81.5333 270° West 400 460 36,000  Level Toronto Center
Mon 03:41:13 PM 43.0167 -81.6833 270° West 410 472 36,000  Level Toronto Center
Mon 03:42:13 PM 43.0167 -81.8500 270° West 410 472 36,000  Level Toronto Center
Mon 03:43:13 PM 43.0000 -82.0000 261° West 410 472 36,000  Level Toronto Center
Mon 03:44:13 PM 43.0000 -82.1667 270° West 410 472 36,000  Level Toronto Center
Mon 03:45:13 PM 43.0000 -82.3000 270° West 410 472 36,000  Level Toronto Center
Mon 03:46:13 PM 43.0000 -82.4667 270° West 410 472 36,000  Level Toronto Center
Mon 03:47:13 PM 43.0167 -82.6167 279° West 410 472 36,000  Level Toronto Center
Mon 03:48:01 PM 43.0722 -82.7033 311° West 391 450 36,000  Level Cleveland Center
Mon 03:49:01 PM 43.1769 -82.7922 328° Northwest 379 436 36,000  Level Cleveland Center
Mon 03:50:01 PM 43.2433 -82.9058 309° West 399 459 36,000  Level Cleveland Center
Mon 03:51:01 PM 43.2633 -83.0519 281° West 390 449 36,000 -400 Level Cleveland Center
Mon 03:52:01 PM 43.2225 -83.1958 249° West 373 429 35,200 -850 Descending Cleveland Center
Mon 03:53:01 PM 43.1900 -83.3425 253° West 391 450 34,300 -950 Descending Cleveland Center
Mon 03:54:01 PM 43.1531 -83.4889 251° West 396 456 33,300 -950 Descending Cleveland Center
Mon 03:55:01 PM 43.1181 -83.6350 252° West 406 467 32,400 -650 Descending Cleveland Center
Mon 03:56:01 PM 43.0828 -83.7842 252° West 413 475 32,000 -200 Descending Cleveland Center
Mon 03:57:01 PM 43.0453 -83.9328 251° West 418 481 32,000  Level Cleveland Center
Mon 03:58:01 PM 43.0075 -84.0811 251° West 418 481 32,000  Level Cleveland Center
Mon 03:59:01 PM 42.9714 -84.2353 252° West 418 481 32,000  Level Cleveland Center
Mon 04:00:15 PM 42.9253 -84.4181 251° West 419 482 32,000  Level Chicago Center
Mon 04:01:17 PM 42.8881 -84.5683 251° West 419 482 32,000  Level Chicago Center
Mon 04:02:19 PM 42.8703 -84.7222 261° West 414 476 32,000  Level Chicago Center
Mon 04:03:21 PM 42.8536 -84.8772 262° West 416 479 32,000  Level Chicago Center
Mon 04:04:23 PM 42.8344 -85.0606 262° West 410 472 32,000 -435 Level Chicago Center
Mon 04:05:25 PM 42.8175 -85.2144 262° West 411 473 31,100 -1,317 Descending Chicago Center
Mon 04:06:26 PM 42.8011 -85.3647 262° West 404 465 29,300 -1,756 Descending Chicago Center
Mon 04:07:28 PM 42.7836 -85.5158 261° West 403 464 27,500 -1,742 Descending Chicago Center
Mon 04:08:30 PM 42.7575 -85.6586 256° West 392 451 25,700 -1,742 Descending Chicago Center
Mon 04:09:32 PM 42.7317 -85.8017 256° West 388 447 23,900 -1,742 Descending Chicago Center
Mon 04:10:34 PM 42.7075 -85.9397 257° West 377 434 22,100 -1,887 Descending Chicago Center
Mon 04:11:36 PM 42.6769 -86.1017 256° West 368 423 20,000 -1,016 Descending Chicago Center
Mon 04:12:38 PM 42.6533 -86.2319 256° West 357 411 20,000 -919 Level Chicago Center
Mon 04:13:40 PM 42.6283 -86.3589 255° West 349 402 18,100 -1,742 Descending Chicago Center
Mon 04:14:42 PM 42.6047 -86.4856 256° West 347 399 16,400 -1,694 Descending Chicago Center
Mon 04:15:44 PM 42.5828 -86.6050 256° West 330 380 14,600 -1,887 Descending Chicago Center
Mon 04:16:46 PM 42.5614 -86.7256 256° West 329 379 12,500 -2,032 Descending Chicago Center
Mon 04:17:48 PM 42.5303 -86.8386 250° West 322 371 10,400 -1,452 Descending Chicago Center
Mon 04:18:50 PM 42.4975 -86.9597 250° West 289 333 9,500 -677 Descending Chicago Center
Mon 04:19:52 PM 42.4694 -87.0544 248° West 275 316 9,000 -484 Descending Chicago Center
Mon 04:20:54 PM 42.4433 -87.1475 249° West 267 307 8,500 -968 Descending Chicago Center
Mon 04:21:56 PM 42.4172 -87.2469 250° West 276 318 7,000 -726 Descending Chicago Center
Mon 04:22:58 PM 42.3925 -87.3431 251° West 274 315 7,000  Level Chicago Center
Mon 04:24:00 PM 42.3622 -87.4517 249° West 262 302 7,000  Level Chicago Center
Mon 04:25:02 PM 42.3303 -87.5261 240° Southwest 236 272 7,000  Level Chicago Center
Mon 04:26:04 PM 42.2839 -87.5783 220° Southwest 223 257 7,000 -339 Level Chicago Center
Mon 04:27:06 PM 42.2369 -87.6314 220° Southwest 221 254 6,300 -726 Descending Chicago Center
Mon 04:28:08 PM 42.1925 -87.6806 219° Southwest 210 242 5,500 -823 Descending Chicago Center
Mon 04:29:10 PM 42.1550 -87.7211 219° Southwest 184 212 4,600 -1,000 Descending Chicago Center
Mon 04:30:08 PM 42.1167 -87.7667 221° Southwest 168 193 3,500 -1,138 Descending Chicago TRACON

Login

Don't have an account? Register now (free) for customized features, flight alerts, and more!